Time;durP1;ratioP1;P1;durP2;ratioP2;P2;SDS_P1;SDS_P2;PMS_P1;PMS_P2;Temp;Humidity;BMP_temperature;BMP_pressure;BME280_temperature;BME280_humidity;BME280_pressure;Samples;Min_cycle;Max_cycle;Signal;HPM_P1;HPM_P2
2023/04/22 00:00:23;;;;;;;8.55;4.78;;;12.80;65.50;;;;;;5030510;28;20044;-68
2023/04/22 00:02:48;;;;;;;7.75;4.75;;;12.80;65.80;;;;;;5028738;28;20036;-68
2023/04/22 00:05:14;;;;;;;7.85;4.60;;;12.70;65.60;;;;;;5028532;28;20704;-68
2023/04/22 00:07:41;;;;;;;6.30;4.55;;;12.80;66.00;;;;;;5029350;28;20492;-69
2023/04/22 00:10:10;;;;;;;7.65;4.43;;;12.80;65.80;;;;;;5032702;28;20500;-68
2023/04/22 00:12:36;;;;;;;10.18;4.70;;;12.80;66.10;;;;;;5027832;28;20138;-68
2023/04/22 00:15:02;;;;;;;7.35;5.13;;;12.80;65.60;;;;;;5029622;28;20509;-68
2023/04/22 00:17:27;;;;;;;8.45;4.38;;;12.80;65.20;;;;;;5029513;28;20041;-68
2023/04/22 00:19:55;;;;;;;8.15;4.93;;;12.80;66.00;;;;;;5023847;28;20672;-68
2023/04/22 00:22:21;;;;;;;6.47;4.40;;;12.80;65.90;;;;;;5025664;28;20052;-69
2023/04/22 00:24:46;;;;;;;8.07;5.38;;;12.70;65.70;;;;;;5019687;28;20041;-68
2023/04/22 00:27:12;;;;;;;6.75;4.57;;;12.70;65.60;;;;;;5018613;28;20581;-68
2023/04/22 00:29:38;;;;;;;10.02;5.05;;;12.70;65.60;;;;;;5031087;28;20469;-69
2023/04/22 00:32:04;;;;;;;6.97;4.75;;;12.70;65.50;;;;;;5018889;28;20079;-68
2023/04/22 00:34:30;;;;;;;7.63;4.85;;;12.60;65.40;;;;;;5029744;28;20061;-68
2023/04/22 00:36:56;;;;;;;8.80;5.20;;;12.60;65.90;;;;;;5022057;28;20149;-68
2023/04/22 00:39:21;;;;;;;7.68;5.13;;;12.70;65.90;;;;;;5023405;28;20033;-68
2023/04/22 00:41:47;;;;;;;8.07;5.80;;;12.60;65.90;;;;;;5027228;28;20028;-69
2023/04/22 00:44:13;;;;;;;7.28;4.63;;;12.70;65.70;;;;;;5025089;28;20029;-68
2023/04/22 00:46:39;;;;;;;9.48;5.50;;;12.60;65.90;;;;;;5028314;28;20435;-68
2023/04/22 00:49:06;;;;;;;8.20;4.78;;;12.60;65.90;;;;;;5032231;28;20500;-68
2023/04/22 00:51:32;;;;;;;8.57;5.40;;;12.60;66.10;;;;;;5034567;28;20440;-68
2023/04/22 00:54:00;;;;;;;6.93;5.22;;;12.50;65.90;;;;;;5032769;28;20021;-69
2023/04/22 00:56:27;;;;;;;8.45;4.80;;;12.50;66.00;;;;;;5035385;28;20036;-68
2023/04/22 00:58:54;;;;;;;8.77;4.55;;;12.60;66.30;;;;;;5035211;28;20033;-69
2023/04/22 01:01:20;;;;;;;7.85;4.78;;;12.60;65.90;;;;;;5030162;28;20073;-69
2023/04/22 01:03:48;;;;;;;10.77;5.45;;;12.50;66.10;;;;;;5030500;28;20033;-69
2023/04/22 01:06:19;;;;;;;8.10;4.70;;;12.50;65.90;;;;;;5031254;28;20041;-68
2023/04/22 01:08:45;;;;;;;11.30;5.88;;;12.50;66.10;;;;;;5029565;28;20634;-69
2023/04/22 01:11:12;;;;;;;12.95;5.70;;;12.50;66.30;;;;;;5033732;28;20068;-68
2023/04/22 01:13:38;;;;;;;9.13;5.05;;;12.50;66.10;;;;;;5031030;28;20020;-68
2023/04/22 01:18:46;;;;;;;6.75;5.00;;;12.40;66.00;;;;;;4993795;28;20448;-69
2023/04/22 01:21:12;;;;;;;9.43;5.50;;;12.40;66.00;;;;;;5001191;28;20066;-66
2023/04/22 01:23:38;;;;;;;6.88;4.78;;;12.30;66.40;;;;;;5007167;28;20033;-67
2023/04/22 01:26:05;;;;;;;8.15;5.43;;;12.30;66.80;;;;;;5000918;28;20962;-67
2023/04/22 01:28:31;;;;;;;8.48;5.03;;;12.30;66.80;;;;;;5000879;28;20037;-67
2023/04/22 01:30:58;;;;;;;8.80;5.47;;;12.20;66.80;;;;;;5002570;28;20064;-67
2023/04/22 01:33:24;;;;;;;9.13;4.82;;;12.30;66.80;;;;;;5003163;28;20116;-67
2023/04/22 01:35:50;;;;;;;6.90;5.10;;;12.20;66.70;;;;;;5003501;28;20187;-67
2023/04/22 01:38:15;;;;;;;8.93;5.88;;;12.20;67.20;;;;;;5001753;28;20038;-66
2023/04/22 01:40:41;;;;;;;8.82;5.55;;;12.10;66.80;;;;;;5000893;28;20026;-67
2023/04/22 01:43:07;;;;;;;9.32;4.88;;;12.10;67.20;;;;;;5001689;28;20564;-66
2023/04/22 01:45:33;;;;;;;7.63;5.03;;;12.10;67.20;;;;;;5004738;28;20114;-66
2023/04/22 01:47:59;;;;;;;7.32;5.05;;;12.00;67.20;;;;;;5001104;28;20801;-67
2023/04/22 01:50:24;;;;;;;7.25;5.53;;;12.00;67.40;;;;;;5001900;28;20026;-67
2023/04/22 01:52:51;;;;;;;10.55;5.22;;;12.00;67.10;;;;;;5000397;28;20072;-67
2023/04/22 01:55:17;;;;;;;8.57;4.95;;;12.00;67.50;;;;;;5001707;28;20046;-67
2023/04/22 01:57:43;;;;;;;9.70;5.25;;;12.00;68.20;;;;;;4999345;28;20038;-67
2023/04/22 02:00:09;;;;;;;11.38;5.82;;;12.00;67.80;;;;;;5000850;28;20129;-67
2023/04/22 02:02:38;;;;;;;9.25;5.50;;;11.90;67.90;;;;;;5002624;28;20137;-67
2023/04/22 02:05:06;;;;;;;6.03;4.38;;;11.90;67.90;;;;;;5001337;28;20712;-67
2023/04/22 02:07:31;;;;;;;7.75;5.90;;;11.90;68.30;;;;;;5001153;28;20223;-67
2023/04/22 02:09:57;;;;;;;8.60;5.28;;;11.90;68.10;;;;;;5000838;28;20513;-67
2023/04/22 02:12:23;;;;;;;6.80;4.90;;;11.80;68.10;;;;;;4984934;28;20026;-67
2023/04/22 02:14:49;;;;;;;9.45;5.07;;;11.80;68.60;;;;;;4999973;28;20436;-67
2023/04/22 02:17:16;;;;;;;7.10;5.13;;;11.80;68.60;;;;;;4999802;28;20414;-67
2023/04/22 02:19:42;;;;;;;9.70;5.72;;;11.80;68.50;;;;;;5016397;28;20076;-67
2023/04/22 02:22:08;;;;;;;12.05;5.38;;;11.80;68.80;;;;;;4999996;28;20042;-67
2023/04/22 02:24:34;;;;;;;10.75;5.93;;;11.80;68.50;;;;;;5000378;28;20033;-67
2023/04/22 02:27:00;;;;;;;7.38;5.13;;;11.80;68.50;;;;;;4999610;28;20026;-67
2023/04/22 02:29:27;;;;;;;13.15;5.20;;;11.80;68.60;;;;;;4999365;28;20061;-67
2023/04/22 02:31:57;;;;;;;8.45;5.38;;;11.80;68.80;;;;;;4997623;28;20040;-67
2023/04/22 02:34:23;;;;;;;9.60;5.07;;;11.80;68.70;;;;;;4999555;28;20146;-67
2023/04/22 02:36:49;;;;;;;8.48;5.13;;;11.80;68.80;;;;;;5000153;28;20464;-67
2023/04/22 02:39:15;;;;;;;9.98;4.78;;;11.80;69.20;;;;;;4999801;28;20037;-66
2023/04/22 02:41:41;;;;;;;8.23;5.10;;;11.80;68.70;;;;;;4999475;28;20052;-67
2023/04/22 02:44:07;;;;;;;7.80;5.10;;;11.80;68.90;;;;;;5003562;28;20038;-67
2023/04/22 02:46:33;;;;;;;7.65;4.97;;;11.70;69.40;;;;;;5011309;22;20030;-67
2023/04/22 02:48:59;;;;;;;9.30;5.45;;;11.60;69.50;;;;;;5192064;22;20078;-67
2023/04/22 02:51:25;;;;;;;7.85;5.40;;;11.60;69.70;;;;;;5035180;28;20021;-67
2023/04/22 02:53:52;;;;;;;11.43;5.38;;;11.60;69.80;;;;;;5034249;28;20072;-67
2023/04/22 02:56:19;;;;;;;9.55;5.05;;;11.60;69.90;;;;;;5030586;28;20516;-67
2023/04/22 02:58:45;;;;;;;9.77;5.57;;;11.60;70.00;;;;;;5176038;22;20534;-67
2023/04/22 03:01:11;;;;;;;9.18;5.20;;;11.50;70.00;;;;;;5020512;28;20030;-67
2023/04/22 03:03:37;;;;;;;6.45;4.75;;;11.50;70.00;;;;;;5012810;28;20459;-67
2023/04/22 03:06:05;;;;;;;7.60;5.50;;;11.40;70.30;;;;;;5021502;28;20381;-67
2023/04/22 03:08:31;;;;;;;13.60;5.53;;;11.40;70.70;;;;;;5014846;28;20091;-67
2023/04/22 03:10:56;;;;;;;6.65;5.05;;;11.40;70.50;;;;;;5018470;28;20068;-67
2023/04/22 03:13:22;;;;;;;9.30;5.72;;;11.40;70.40;;;;;;5016330;28;20048;-67
2023/04/22 03:15:49;;;;;;;8.65;5.30;;;11.40;70.30;;;;;;5016782;28;20029;-67
2023/04/22 03:18:14;;;;;;;8.85;5.60;;;11.40;71.00;;;;;;5017076;28;20033;-67
2023/04/22 03:20:41;;;;;;;9.75;5.15;;;11.30;71.00;;;;;;5015534;28;20048;-67
2023/04/22 03:23:07;;;;;;;7.35;5.22;;;11.30;71.40;;;;;;5014517;28;20060;-67
2023/04/22 03:25:35;;;;;;;6.95;4.78;;;11.30;71.10;;;;;;5022010;28;20057;-67
2023/04/22 03:28:03;;;;;;;10.10;5.65;;;11.30;70.80;;;;;;5016568;28;20044;-67
2023/04/22 03:30:29;;;;;;;8.68;5.50;;;11.30;71.40;;;;;;5012809;28;20033;-67
2023/04/22 03:32:56;;;;;;;11.43;4.85;;;11.30;71.60;;;;;;5012125;28;20026;-67
2023/04/22 03:35:29;;;;;;;7.63;5.35;;;11.20;71.90;;;;;;5031660;28;20037;-67
2023/04/22 03:37:59;;;;;;;9.35;5.45;;;11.20;71.90;;;;;;5014618;28;20048;-67
2023/04/22 03:40:30;;;;;;;7.68;5.47;;;11.10;71.90;;;;;;5017298;28;20033;-67
2023/04/22 03:42:56;;;;;;;11.30;5.60;;;11.10;71.80;;;;;;5033491;28;20052;-67
2023/04/22 03:45:22;;;;;;;8.13;5.18;;;11.10;72.10;;;;;;5031204;28;20091;-67
2023/04/22 03:48:02;;;;;;;8.10;5.80;;;11.00;72.40;;;;;;5016449;28;20746;-67
2023/04/22 03:50:37;;;;;;;11.23;5.60;;;10.90;72.20;;;;;;5016072;28;20121;-67
2023/04/22 03:53:03;;;;;;;7.68;5.22;;;10.90;72.80;;;;;;5017013;28;20824;-67
2023/04/22 03:55:28;;;;;;;9.93;5.68;;;10.80;73.00;;;;;;5031007;28;20052;-68
2023/04/22 03:57:55;;;;;;;10.18;5.68;;;10.80;72.90;;;;;;5022581;28;20406;-67
2023/04/22 04:00:20;;;;;;;10.45;5.45;;;10.80;73.10;;;;;;5014210;28;20048;-67
2023/04/22 04:02:55;;;;;;;9.23;6.05;;;10.80;73.60;;;;;;5016280;28;20041;-67
2023/04/22 04:05:25;;;;;;;8.05;5.38;;;10.70;73.80;;;;;;5015610;28;20037;-67
2023/04/22 04:07:51;;;;;;;9.70;5.60;;;10.80;73.70;;;;;;5015427;28;20030;-67
2023/04/22 04:10:16;;;;;;;10.55;5.68;;;10.70;73.70;;;;;;5018237;28;20083;-67
2023/04/22 04:12:42;;;;;;;9.07;5.32;;;10.60;74.00;;;;;;5026932;28;20032;-67
2023/04/22 04:15:08;;;;;;;8.75;5.38;;;10.60;74.10;;;;;;5016281;28;20033;-67
2023/04/22 04:17:35;;;;;;;9.32;5.55;;;10.50;74.10;;;;;;5015367;28;20772;-67
2023/04/22 04:20:04;;;;;;;10.10;6.20;;;10.60;74.10;;;;;;5014325;28;20034;-67
2023/04/22 04:22:30;;;;;;;8.82;5.28;;;10.60;74.50;;;;;;5017393;28;20037;-68
2023/04/22 04:25:00;;;;;;;7.85;5.30;;;10.50;75.00;;;;;;5036395;28;20124;-68
2023/04/22 04:27:31;;;;;;;8.65;5.47;;;10.60;74.30;;;;;;5017250;28;20030;-67
2023/04/22 04:29:57;;;;;;;9.10;5.28;;;10.60;74.40;;;;;;5015358;28;20692;-68
2023/04/22 04:32:37;;;;;;;8.80;5.43;;;10.60;74.50;;;;;;5021473;28;20060;-67
2023/04/22 04:35:07;;;;;;;10.23;6.00;;;10.50;75.00;;;;;;5018697;28;20072;-67
2023/04/22 04:37:33;;;;;;;9.00;6.00;;;10.50;74.90;;;;;;5017784;28;20091;-67
2023/04/22 04:40:06;;;;;;;9.48;6.20;;;10.50;75.10;;;;;;5025302;28;20035;-67
2023/04/22 04:42:42;;;;;;;8.45;5.55;;;10.60;75.10;;;;;;5019343;28;20026;-68
2023/04/22 04:45:16;;;;;;;10.27;5.53;;;10.60;74.80;;;;;;5035903;28;20030;-67
2023/04/22 04:47:42;;;;;;;9.23;5.65;;;10.70;75.10;;;;;;5009805;28;20098;-68
2023/04/22 04:50:16;;;;;;;9.48;5.93;;;10.70;75.20;;;;;;5037070;28;20496;-67
2023/04/22 04:52:43;;;;;;;9.23;6.13;;;10.70;75.10;;;;;;5031606;28;20053;-67
2023/04/22 04:55:08;;;;;;;8.27;5.80;;;10.70;74.70;;;;;;5019078;28;20116;-67
2023/04/22 04:57:34;;;;;;;10.07;5.35;;;10.70;75.10;;;;;;5025591;28;20120;-67
2023/04/22 05:00:02;;;;;;;9.90;5.35;;;10.70;74.90;;;;;;5018178;28;20049;-67
2023/04/22 05:02:27;;;;;;;10.27;5.55;;;10.70;74.90;;;;;;5033723;28;20083;-67
2023/04/22 05:04:53;;;;;;;7.80;5.38;;;10.70;75.30;;;;;;5038884;22;20053;-67
2023/04/22 05:07:19;;;;;;;10.52;5.75;;;10.70;75.20;;;;;;5033098;28;20029;-68
2023/04/22 05:09:47;;;;;;;9.77;6.00;;;10.70;75.60;;;;;;5031213;28;20025;-67
2023/04/22 05:12:13;;;;;;;10.20;5.72;;;10.70;75.40;;;;;;5028042;28;20067;-67
2023/04/22 05:14:39;;;;;;;8.93;5.68;;;10.80;75.20;;;;;;5029066;28;20112;-67
2023/04/22 05:17:05;;;;;;;9.55;5.38;;;10.90;75.30;;;;;;5051922;28;20044;-68
2023/04/22 05:19:31;;;;;;;7.82;5.40;;;11.00;74.80;;;;;;5032862;28;20045;-67
2023/04/22 05:21:57;;;;;;;10.55;5.60;;;11.20;74.30;;;;;;5038397;28;20061;-67
2023/04/22 05:24:23;;;;;;;8.40;5.22;;;11.30;74.10;;;;;;5030657;28;20033;-67
2023/04/22 05:26:51;;;;;;;9.45;5.47;;;11.30;74.20;;;;;;5031992;28;20116;-67
2023/04/22 05:29:19;;;;;;;11.63;5.45;;;11.40;73.20;;;;;;5033758;28;20029;-67
2023/04/22 05:31:45;;;;;;;8.02;5.47;;;11.60;72.80;;;;;;5039691;28;20021;-67
2023/04/22 05:34:11;;;;;;;8.40;5.30;;;11.70;72.50;;;;;;5029826;28;20025;-67
2023/04/22 05:36:37;;;;;;;10.82;5.55;;;11.80;72.50;;;;;;5035214;28;20035;-68
2023/04/22 05:39:03;;;;;;;9.45;5.95;;;11.90;71.60;;;;;;5032525;28;20044;-68
2023/04/22 05:41:31;;;;;;;10.32;5.65;;;12.00;72.20;;;;;;5028986;28;20080;-67
2023/04/22 05:43:58;;;;;;;10.68;5.50;;;12.30;71.30;;;;;;5034578;28;20740;-68
2023/04/22 05:46:24;;;;;;;11.60;5.57;;;12.70;70.60;;;;;;5032739;28;20030;-68
2023/04/22 05:48:50;;;;;;;7.43;5.55;;;13.10;68.80;;;;;;5036220;28;20017;-67
2023/04/22 05:51:36;;;;;;;9.65;5.95;;;13.50;66.70;;;;;;5027794;28;20253;-67
2023/04/22 05:54:02;;;;;;;8.00;5.25;;;14.00;65.70;;;;;;5030971;28;20843;-67
2023/04/22 05:56:28;;;;;;;9.80;5.45;;;14.70;63.90;;;;;;5029477;28;20106;-68
2023/04/22 05:58:54;;;;;;;9.15;5.38;;;15.40;62.60;;;;;;5037312;28;20033;-67
2023/04/22 06:01:23;;;;;;;6.93;5.35;;;15.80;60.50;;;;;;5031461;28;20039;-68
2023/04/22 06:03:59;;;;;;;9.43;5.53;;;16.20;59.80;;;;;;5039146;22;20596;-67
2023/04/22 06:06:26;;;;;;;7.32;4.90;;;16.50;59.00;;;;;;4992079;28;20042;-67
2023/04/22 06:08:52;;;;;;;8.77;5.70;;;16.90;56.90;;;;;;4992457;28;20029;-67
2023/04/22 06:11:17;;;;;;;8.57;5.68;;;17.50;56.40;;;;;;4982946;28;20592;-67
2023/04/22 06:13:43;;;;;;;8.13;5.20;;;17.90;55.20;;;;;;4979350;28;20173;-67
2023/04/22 06:16:09;;;;;;;9.57;5.38;;;18.10;54.10;;;;;;4974068;28;20026;-67
2023/04/22 06:18:35;;;;;;;9.85;5.25;;;18.30;53.80;;;;;;4975432;28;20039;-67
2023/04/22 06:21:02;;;;;;;8.20;5.75;;;18.60;53.00;;;;;;4972997;28;20042;-67
2023/04/22 06:23:28;;;;;;;16.17;5.53;;;19.20;52.60;;;;;;4950593;28;20945;-67
2023/04/22 06:25:55;;;;;;;8.60;5.28;;;19.70;51.00;;;;;;4976882;28;20047;-67
2023/04/22 06:28:21;;;;;;;8.15;4.97;;;20.00;49.70;;;;;;5001659;22;20037;-67
2023/04/22 06:30:49;;;;;;;8.55;5.78;;;20.10;49.40;;;;;;5032622;28;20049;-68
2023/04/22 06:33:15;;;;;;;7.95;5.03;;;20.10;49.10;;;;;;5014257;28;20063;-68
2023/04/22 06:35:41;;;;;;;8.52;5.22;;;20.00;49.40;;;;;;5017310;28;20556;-68
2023/04/22 06:38:07;;;;;;;6.32;4.72;;;20.10;49.20;;;;;;5016965;28;20037;-68
2023/04/22 06:40:42;;;;;;;6.75;5.28;;;20.00;49.20;;;;;;5016525;28;20029;-68
2023/04/22 06:46:16;;;;;;;9.35;6.03;;;20.00;49.30;;;;;;5198913;22;20117;-68
2023/04/22 06:48:51;;;;;;;11.18;6.03;;;19.80;49.60;;;;;;5052865;22;20699;-68
2023/04/22 06:51:30;;;;;;;11.90;5.82;;;19.70;50.00;;;;;;5009125;28;20029;-68
2023/04/22 06:53:57;;;;;;;8.93;5.72;;;19.80;50.10;;;;;;5014112;28;20039;-67
2023/04/22 06:56:23;;;;;;;8.98;5.38;;;19.80;50.00;;;;;;5009873;28;20033;-68
2023/04/22 06:58:49;;;;;;;9.60;5.90;;;20.20;50.20;;;;;;5030296;22;20954;-68
2023/04/22 07:01:16;;;;;;;7.18;5.55;;;20.70;49.50;;;;;;5033379;28;20032;-68
2023/04/22 07:03:42;;;;;;;8.30;5.40;;;20.90;48.10;;;;;;5037551;28;20099;-68
2023/04/22 07:06:12;;;;;;;10.18;5.18;;;21.20;47.60;;;;;;5016404;28;20044;-69
2023/04/22 07:08:38;;;;;;;9.93;5.43;;;21.30;47.40;;;;;;5022540;28;20029;-70
2023/04/22 07:11:04;;;;;;;8.77;5.97;;;21.10;46.70;;;;;;5035466;28;20024;-69
2023/04/22 07:13:45;;;;;;;11.27;5.63;;;20.80;48.00;;;;;;5039618;28;20026;-69
2023/04/22 07:16:11;;;;;;;9.88;5.82;;;20.40;48.60;;;;;;5037755;28;20884;-67
2023/04/22 07:18:38;;;;;;;9.82;5.35;;;20.10;50.00;;;;;;5043111;28;20047;-70
2023/04/22 07:21:04;;;;;;;10.43;5.80;;;20.20;50.00;;;;;;5049188;28;20036;-68
2023/04/22 07:23:30;;;;;;;7.18;5.03;;;20.30;49.70;;;;;;5045027;28;20133;-66
2023/04/22 07:25:56;;;;;;;8.65;5.78;;;20.50;50.20;;;;;;5046019;28;20127;-68
2023/04/22 07:28:22;;;;;;;8.77;5.47;;;20.70;49.30;;;;;;5044133;28;20029;-67
2023/04/22 07:30:47;;;;;;;12.60;5.85;;;21.20;48.80;;;;;;5045242;28;20029;-68
2023/04/22 07:33:13;;;;;;;8.30;5.40;;;21.70;46.20;;;;;;5052542;28;20133;-67
2023/04/22 07:35:39;;;;;;;8.20;5.65;;;22.10;46.40;;;;;;5049571;28;20111;-68
2023/04/22 07:38:05;;;;;;;6.85;4.88;;;22.10;45.90;;;;;;5038176;28;20433;-68
2023/04/22 07:40:30;;;;;;;7.75;5.20;;;22.10;46.60;;;;;;5032230;28;20037;-69
2023/04/22 07:42:56;;;;;;;8.65;5.38;;;22.00;48.00;;;;;;5037311;28;20041;-69
2023/04/22 07:45:22;;;;;;;7.82;5.47;;;22.10;46.90;;;;;;5045076;28;20037;-66
2023/04/22 07:47:48;;;;;;;8.18;5.50;;;22.20;46.50;;;;;;5044041;28;20067;-68
2023/04/22 07:50:13;;;;;;;10.75;5.90;;;22.10;47.70;;;;;;5045201;28;20021;-69
2023/04/22 07:55:09;;;;;;;10.15;5.53;;;22.30;45.90;;;;;;5034065;28;20335;-65
2023/04/22 07:57:38;;;;;;;12.80;5.72;;;22.60;47.10;;;;;;5032411;28;20029;-73
2023/04/22 08:00:08;;;;;;;13.50;6.55;;;22.70;46.70;;;;;;5026670;22;20049;-69
2023/04/22 08:02:40;;;;;;;;;;;22.70;46.00;;;;;;4990666;28;20101;-69
2023/04/22 08:05:06;;;;;;;18.02;4.93;;;22.30;47.30;;;;;;4996346;28;20612;-68
2023/04/22 08:07:33;;;;;;;11.75;6.05;;;22.40;48.40;;;;;;5000092;28;20062;-70
2023/04/22 08:09:59;;;;;;;9.45;4.90;;;22.40;47.50;;;;;;5005561;28;20030;-70
2023/04/22 08:12:25;;;;;;;13.48;5.75;;;22.60;48.60;;;;;;4991384;28;20041;-69
2023/04/22 08:14:51;;;;;;;9.88;5.47;;;22.40;46.30;;;;;;4997896;28;20038;-67
2023/04/22 08:17:20;;;;;;;7.78;5.50;;;22.40;46.90;;;;;;4993410;28;20114;-66
2023/04/22 08:19:47;;;;;;;6.70;4.90;;;22.40;46.80;;;;;;4995036;28;20056;-70
2023/04/22 08:22:13;;;;;;;8.90;4.90;;;22.30;48.30;;;;;;4989692;28;20023;-70
2023/04/22 08:24:39;;;;;;;6.45;5.10;;;22.20;47.10;;;;;;4996219;28;20504;-70
2023/04/22 08:27:05;;;;;;;11.13;5.18;;;22.20;47.90;;;;;;4990648;28;20038;-69
2023/04/22 08:29:32;;;;;;;8.27;5.40;;;22.20;48.70;;;;;;4997338;28;20047;-71
2023/04/22 08:31:57;;;;;;;11.63;5.10;;;22.30;47.20;;;;;;4991628;28;20045;-72
2023/04/22 08:34:25;;;;;;;5.35;4.50;;;22.40;49.10;;;;;;4991958;28;20347;-71
2023/04/22 08:36:51;;;;;;;9.35;4.93;;;22.70;48.50;;;;;;5009121;22;20145;-71
2023/04/22 08:39:17;;;;;;;7.25;4.65;;;22.90;47.30;;;;;;5187693;22;20423;-70
2023/04/22 08:41:43;;;;;;;7.20;4.90;;;23.00;46.50;;;;;;5014031;28;20068;-70
2023/04/22 08:44:10;;;;;;;10.68;4.55;;;22.80;46.00;;;;;;5014638;28;20369;-70
2023/04/22 08:46:36;;;;;;;7.40;5.13;;;22.80;47.20;;;;;;5014893;28;20070;-70
2023/04/22 08:49:03;;;;;;;7.38;4.20;;;23.10;48.00;;;;;;5019397;28;20343;-70
2023/04/22 08:51:31;;;;;;;10.18;4.95;;;23.30;45.50;;;;;;5019673;28;20128;-70
2023/04/22 08:53:56;;;;;;;8.85;5.05;;;23.70;46.50;;;;;;5016568;28;20030;-70
2023/04/22 08:56:24;;;;;;;7.25;4.80;;;23.70;46.10;;;;;;5019249;28;20045;-71
2023/04/22 08:58:51;;;;;;;8.38;5.15;;;24.00;44.90;;;;;;5016707;28;20041;-70
2023/04/22 09:01:17;;;;;;;8.77;4.82;;;24.60;44.70;;;;;;5019311;28;20096;-70
2023/04/22 09:03:44;;;;;;;8.40;5.10;;;24.80;43.10;;;;;;5017769;28;20481;-70
2023/04/22 09:06:10;;;;;;;11.77;4.93;;;25.00;42.00;;;;;;5020989;28;20176;-70
2023/04/22 09:08:37;;;;;;;8.82;5.10;;;25.20;42.30;;;;;;5021291;28;20117;-66
2023/04/22 09:11:03;;;;;;;9.77;5.05;;;25.50;41.80;;;;;;5027054;28;20030;-69
2023/04/22 09:13:29;;;;;;;7.13;4.85;;;25.70;41.30;;;;;;5025421;28;20033;-69
2023/04/22 09:15:55;;;;;;;9.38;4.93;;;25.90;41.30;;;;;;5020090;28;20049;-70
2023/04/22 09:18:21;;;;;;;7.45;5.03;;;26.00;41.60;;;;;;5018841;28;20591;-69
2023/04/22 09:20:48;;;;;;;11.68;5.28;;;25.90;41.00;;;;;;5018362;28;20029;-69
2023/04/22 09:23:14;;;;;;;14.02;5.00;;;26.40;42.10;;;;;;5018255;28;20853;-69
2023/04/22 09:25:40;;;;;;;9.13;5.30;;;26.90;41.90;;;;;;5023284;28;20028;-69
2023/04/22 09:28:11;;;;;;;11.35;4.93;;;27.10;40.30;;;;;;5021544;28;20728;-70
2023/04/22 09:30:36;;;;;;;8.57;4.43;;;27.20;39.50;;;;;;5018711;28;20037;-69
2023/04/22 09:33:05;;;;;;;7.72;4.22;;;26.80;40.20;;;;;;5018265;28;20728;-69
2023/04/22 09:35:33;;;;;;;10.10;4.53;;;26.60;40.20;;;;;;5019533;28;20038;-69
2023/04/22 09:38:01;;;;;;;12.10;4.70;;;26.20;40.90;;;;;;5022070;28;20033;-69
2023/04/22 09:40:28;;;;;;;8.63;4.28;;;26.00;41.70;;;;;;5021038;28;20405;-69
2023/04/22 09:42:57;;;;;;;10.60;4.65;;;26.10;42.00;;;;;;5023086;28;20037;-69
2023/04/22 09:45:29;;;;;;;7.78;4.50;;;26.10;40.60;;;;;;5019594;28;20034;-67
2023/04/22 09:47:55;;;;;;;8.13;4.70;;;25.60;41.60;;;;;;5017667;28;20121;-69
2023/04/22 09:50:25;;;;;;;7.13;4.53;;;25.20;41.20;;;;;;5018012;28;20061;-69
2023/04/22 09:53:03;;;;;;;9.80;4.55;;;25.20;43.30;;;;;;5021545;28;20030;-69
2023/04/22 09:55:33;;;;;;;8.20;4.78;;;25.30;41.50;;;;;;5021227;28;20041;-68
2023/04/22 09:58:05;;;;;;;10.23;4.32;;;25.60;42.00;;;;;;5022753;28;20969;-68
2023/04/22 10:00:31;;;;;;;8.18;4.45;;;25.90;44.30;;;;;;5020512;28;20037;-68
2023/04/22 10:02:57;;;;;;;7.47;4.18;;;25.90;41.20;;;;;;5021034;28;20623;-68
2023/04/22 10:05:24;;;;;;;8.02;3.88;;;25.50;40.70;;;;;;5017650;28;20495;-68
2023/04/22 10:07:50;;;;;;;5.93;3.85;;;25.50;42.00;;;;;;5018475;28;20033;-68
2023/04/22 10:10:16;;;;;;;7.97;4.25;;;25.70;42.00;;;;;;5016671;28;20782;-68
2023/04/22 10:12:42;;;;;;;5.85;4.00;;;25.80;41.40;;;;;;5018979;28;20052;-68
2023/04/22 10:15:08;;;;;;;8.65;4.22;;;25.70;40.20;;;;;;5016742;28;20053;-68
2023/04/22 10:17:37;;;;;;;6.88;3.78;;;25.70;39.10;;;;;;5021449;28;20041;-68
2023/04/22 10:20:12;;;;;;;7.45;4.18;;;25.70;40.00;;;;;;5018490;28;20856;-68
2023/04/22 10:22:41;;;;;;;9.73;3.78;;;25.40;40.90;;;;;;5021071;28;20620;-68
2023/04/22 10:25:22;;;;;;;5.47;3.58;;;25.00;43.10;;;;;;5017132;28;20375;-68
2023/04/22 10:28:04;;;;;;;4.32;3.38;;;24.90;43.10;;;;;;5017698;28;20034;-68
2023/04/22 10:30:32;;;;;;;6.28;3.90;;;24.90;42.60;;;;;;5020071;28;20676;-68
2023/04/22 10:33:20;;;;;;;9.13;3.58;;;24.80;42.60;;;;;;5010182;28;20029;-68
2023/04/22 10:36:08;;;;;;;9.30;3.95;;;24.70;40.80;;;;;;5011920;28;20033;-68
2023/04/22 10:39:01;;;;;;;6.78;3.28;;;24.70;40.50;;;;;;5018457;28;21066;-69
2023/04/22 10:41:34;;;;;;;8.02;3.90;;;24.90;42.80;;;;;;5015520;28;20212;-68
2023/04/22 10:44:04;;;;;;;7.35;3.30;;;24.80;40.90;;;;;;5022207;28;20163;-68
2023/04/22 10:46:38;;;;;;;6.85;3.65;;;24.60;40.30;;;;;;5017913;28;20206;-67
2023/04/22 10:49:11;;;;;;;7.65;3.42;;;24.70;40.90;;;;;;5016293;28;20041;-68
2023/04/22 10:51:45;;;;;;;5.43;3.35;;;24.50;40.60;;;;;;5018691;28;20042;-67
2023/04/22 10:54:26;;;;;;;10.40;4.13;;;24.70;41.00;;;;;;5015637;28;20056;-68
2023/04/22 10:57:17;;;;;;;5.78;3.55;;;25.40;43.90;;;;;;5016859;28;20041;-67
2023/04/22 10:59:50;;;;;;;9.10;3.72;;;25.70;41.30;;;;;;5017492;28;20098;-68
2023/04/22 11:02:17;;;;;;;8.15;2.90;;;26.00;39.00;;;;;;5012666;28;20033;-67
2023/04/22 11:04:44;;;;;;;8.52;4.47;;;25.60;38.60;;;;;;5021670;28;20396;-68
2023/04/22 11:07:19;;;;;;;5.90;3.50;;;25.00;38.90;;;;;;5009940;28;20120;-68
2023/04/22 11:09:48;;;;;;;5.97;3.28;;;24.50;40.10;;;;;;5012147;28;20042;-66
2023/04/22 11:12:40;;;;;;;6.13;3.50;;;24.10;38.40;;;;;;5015352;28;20044;-66
2023/04/22 11:15:15;;;;;;;8.80;3.63;;;24.00;40.50;;;;;;5012917;28;20144;-67
2023/04/22 11:17:45;;;;;;;9.32;3.40;;;23.90;40.30;;;;;;5019298;28;20026;-68
2023/04/22 11:20:16;;;;;;;7.75;3.80;;;23.60;38.80;;;;;;5013085;28;20034;-68
2023/04/22 11:22:43;;;;;;;10.77;3.25;;;23.50;39.70;;;;;;5018051;28;20098;-67
2023/04/22 11:25:09;;;;;;;6.97;3.33;;;23.40;40.20;;;;;;5017649;28;20043;-68
2023/04/22 11:27:36;;;;;;;7.10;2.80;;;23.30;39.60;;;;;;5014825;28;20034;-68
2023/04/22 11:30:06;;;;;;;6.90;2.80;;;23.10;38.70;;;;;;5018306;28;20034;-68
2023/04/22 11:32:33;;;;;;;5.20;3.30;;;22.80;39.50;;;;;;5017865;28;20038;-68
2023/04/22 11:35:03;;;;;;;6.53;3.35;;;22.70;39.70;;;;;;5014358;28;20058;-69
2023/04/22 11:37:29;;;;;;;5.80;2.83;;;22.80;40.60;;;;;;5016653;28;20381;-69
2023/04/22 11:40:03;;;;;;;4.68;2.78;;;22.90;40.70;;;;;;5016846;28;20045;-68
2023/04/22 11:42:29;;;;;;;4.80;2.55;;;23.00;38.90;;;;;;5013232;28;20029;-63
2023/04/22 11:44:54;;;;;;;9.15;3.13;;;23.00;39.00;;;;;;5011987;28;20783;-68
2023/04/22 11:47:20;;;;;;;4.60;3.05;;;22.80;39.90;;;;;;5014657;28;20030;-67
2023/04/22 11:50:00;;;;;;;9.32;2.70;;;22.60;41.30;;;;;;5012732;28;20439;-67
2023/04/22 11:52:44;;;;;;;6.00;2.97;;;22.40;41.00;;;;;;5011623;28;20029;-69
2023/04/22 11:55:15;;;;;;;5.70;3.00;;;22.50;41.40;;;;;;5011881;28;20048;-70
2023/04/22 11:57:42;;;;;;;5.32;3.60;;;22.40;39.50;;;;;;5016218;28;20529;-69
2023/04/22 12:00:12;;;;;;;7.03;3.30;;;22.40;40.20;;;;;;5017537;28;20687;-70
2023/04/22 12:02:39;;;;;;;7.68;2.70;;;22.40;42.00;;;;;;5015038;28;20025;-70
2023/04/22 12:05:09;;;;;;;5.00;3.47;;;22.40;39.70;;;;;;5012732;28;20056;-70
2023/04/22 12:07:35;;;;;;;4.90;2.90;;;22.50;41.20;;;;;;5017377;28;20041;-69
2023/04/22 12:10:02;;;;;;;6.93;2.83;;;22.60;42.80;;;;;;5014313;28;20029;-69
2023/04/22 12:12:28;;;;;;;5.18;2.70;;;22.60;40.80;;;;;;5014807;28;20151;-70
2023/04/22 12:31:01;;;;;;;4.85;3.00;;;22.50;43.30;;;;;;5013026;28;20568;-70
2023/04/22 12:33:27;;;;;;;5.60;3.30;;;22.60;40.40;;;;;;5010555;28;20042;-71
2023/04/22 12:35:53;;;;;;;4.88;3.20;;;22.70;40.70;;;;;;5010616;28;20116;-71
2023/04/22 12:38:19;;;;;;;5.15;3.22;;;22.60;43.10;;;;;;5006793;28;20122;-72
2023/04/22 12:40:45;;;;;;;5.82;3.05;;;22.60;44.30;;;;;;5019443;28;20658;-70
2023/04/22 12:43:11;;;;;;;3.95;3.13;;;22.80;41.80;;;;;;5018158;28;20108;-63
2023/04/22 12:45:37;;;;;;;4.30;3.10;;;22.80;40.40;;;;;;5040744;22;20040;-68
2023/04/22 12:48:13;;;;;;;3.35;2.90;;;22.90;41.20;;;;;;5558390;22;20156;-69
2023/04/22 12:50:40;;;;;;;7.35;2.97;;;22.80;40.70;;;;;;5036354;28;20825;-66
2023/04/22 12:53:06;;;;;;;8.98;2.90;;;22.90;41.70;;;;;;5039026;28;20029;-69
2023/04/22 12:55:32;;;;;;;5.97;3.05;;;22.90;40.70;;;;;;5037891;28;20043;-69
2023/04/22 12:57:58;;;;;;;6.07;2.80;;;22.80;39.40;;;;;;5019646;28;20865;-70
2023/04/22 13:00:24;;;;;;;8.10;3.30;;;22.80;41.90;;;;;;5012398;28;20048;-69
2023/04/22 13:02:50;;;;;;;3.88;2.70;;;22.80;39.70;;;;;;5021400;28;20033;-70
2023/04/22 13:05:17;;;;;;;3.58;2.55;;;22.70;39.60;;;;;;5011576;28;20034;-70
2023/04/22 13:07:43;;;;;;;6.85;3.08;;;22.80;39.30;;;;;;5025151;28;20145;-70
2023/04/22 13:10:12;;;;;;;5.25;3.00;;;22.80;41.00;;;;;;5016344;28;20033;-70
2023/04/22 13:12:39;;;;;;;6.28;2.80;;;22.70;41.30;;;;;;5021486;28;20060;-69